sensor_id;sensor_type;location;lat;lon;timestamp;P1;durP1;ratioP1;P2;durP2;ratioP2
40871;SDS011;26591;43.264;26.940;2023-05-02T00:02:07;9.50;;;2.78;;
40871;SDS011;26591;43.264;26.940;2023-05-02T00:04:33;8.93;;;2.65;;
40871;SDS011;26591;43.264;26.940;2023-05-02T00:06:58;4.90;;;2.92;;
40871;SDS011;26591;43.264;26.940;2023-05-02T00:09:24;6.72;;;2.55;;
40871;SDS011;26591;43.264;26.940;2023-05-02T00:11:50;6.63;;;2.70;;
40871;SDS011;26591;43.264;26.940;2023-05-02T00:14:15;6.72;;;2.30;;
40871;SDS011;26591;43.264;26.940;2023-05-02T00:16:40;4.53;;;2.40;;
40871;SDS011;26591;43.264;26.940;2023-05-02T00:19:06;5.40;;;1.90;;
40871;SDS011;26591;43.264;26.940;2023-05-02T00:21:32;3.88;;;2.00;;
40871;SDS011;26591;43.264;26.940;2023-05-02T00:23:57;4.18;;;1.95;;
40871;SDS011;26591;43.264;26.940;2023-05-02T00:26:24;4.85;;;2.20;;
40871;SDS011;26591;43.264;26.940;2023-05-02T00:28:49;4.45;;;1.90;;
40871;SDS011;26591;43.264;26.940;2023-05-02T00:31:15;5.22;;;2.10;;
40871;SDS011;26591;43.264;26.940;2023-05-02T00:33:53;5.43;;;2.20;;
40871;SDS011;26591;43.264;26.940;2023-05-02T00:36:18;5.65;;;1.88;;
40871;SDS011;26591;43.264;26.940;2023-05-02T00:38:44;5.97;;;2.00;;
40871;SDS011;26591;43.264;26.940;2023-05-02T00:41:16;5.63;;;2.05;;
40871;SDS011;26591;43.264;26.940;2023-05-02T00:43:42;5.25;;;1.88;;
40871;SDS011;26591;43.264;26.940;2023-05-02T00:46:09;7.20;;;2.42;;
40871;SDS011;26591;43.264;26.940;2023-05-02T00:48:36;6.90;;;2.10;;
40871;SDS011;26591;43.264;26.940;2023-05-02T00:51:03;4.43;;;1.92;;
40871;SDS011;26591;43.264;26.940;2023-05-02T00:53:32;5.47;;;2.30;;
40871;SDS011;26591;43.264;26.940;2023-05-02T00:55:58;3.92;;;2.00;;
40871;SDS011;26591;43.264;26.940;2023-05-02T00:58:23;4.60;;;2.05;;
40871;SDS011;26591;43.264;26.940;2023-05-02T01:12:02;7.57;;;2.10;;
40871;SDS011;26591;43.264;26.940;2023-05-02T01:14:33;6.07;;;2.35;;
40871;SDS011;26591;43.264;26.940;2023-05-02T01:17:05;5.15;;;1.90;;
40871;SDS011;26591;43.264;26.940;2023-05-02T01:19:34;3.90;;;1.95;;
40871;SDS011;26591;43.264;26.940;2023-05-02T01:22:04;10.32;;;2.17;;
40871;SDS011;26591;43.264;26.940;2023-05-02T01:28:35;5.45;;;1.88;;
40871;SDS011;26591;43.264;26.940;2023-05-02T01:30:43;5.85;;;1.83;;
40871;SDS011;26591;43.264;26.940;2023-05-02T01:33:12;4.05;;;1.80;;
40871;SDS011;26591;43.264;26.940;2023-05-02T01:35:41;4.73;;;2.60;;
40871;SDS011;26591;43.264;26.940;2023-05-02T01:38:09;5.15;;;2.20;;
40871;SDS011;26591;43.264;26.940;2023-05-02T01:40:39;4.07;;;1.90;;
40871;SDS011;26591;43.264;26.940;2023-05-02T01:43:09;6.07;;;2.33;;
40871;SDS011;26591;43.264;26.940;2023-05-02T01:45:36;6.47;;;1.75;;
40871;SDS011;26591;43.264;26.940;2023-05-02T01:48:04;5.03;;;1.80;;
40871;SDS011;26591;43.264;26.940;2023-05-02T01:50:31;5.60;;;2.10;;
40871;SDS011;26591;43.264;26.940;2023-05-02T01:52:58;3.20;;;1.98;;
40871;SDS011;26591;43.264;26.940;2023-05-02T01:55:26;4.57;;;2.17;;
40871;SDS011;26591;43.264;26.940;2023-05-02T01:57:53;4.70;;;2.35;;
40871;SDS011;26591;43.264;26.940;2023-05-02T02:00:20;7.57;;;2.28;;
40871;SDS011;26591;43.264;26.940;2023-05-02T02:02:48;5.53;;;2.78;;
40871;SDS011;26591;43.264;26.940;2023-05-02T02:05:17;7.10;;;2.53;;
40871;SDS011;26591;43.264;26.940;2023-05-02T02:07:44;4.75;;;2.45;;
40871;SDS011;26591;43.264;26.940;2023-05-02T02:10:10;11.02;;;2.72;;
40871;SDS011;26591;43.264;26.940;2023-05-02T02:12:40;7.00;;;2.35;;
40871;SDS011;26591;43.264;26.940;2023-05-02T02:15:08;6.75;;;2.50;;
40871;SDS011;26591;43.264;26.940;2023-05-02T02:17:36;4.43;;;2.47;;
40871;SDS011;26591;43.264;26.940;2023-05-02T02:20:05;4.70;;;2.28;;
40871;SDS011;26591;43.264;26.940;2023-05-02T02:22:36;8.18;;;2.50;;
40871;SDS011;26591;43.264;26.940;2023-05-02T02:25:06;5.78;;;2.22;;
40871;SDS011;26591;43.264;26.940;2023-05-02T02:27:36;7.75;;;2.53;;
40871;SDS011;26591;43.264;26.940;2023-05-02T02:30:02;6.70;;;2.72;;
40871;SDS011;26591;43.264;26.940;2023-05-02T02:32:28;6.05;;;3.13;;
40871;SDS011;26591;43.264;26.940;2023-05-02T02:34:54;9.35;;;3.03;;
40871;SDS011;26591;43.264;26.940;2023-05-02T02:37:23;10.50;;;3.50;;
40871;SDS011;26591;43.264;26.940;2023-05-02T02:45:37;10.23;;;3.13;;
40871;SDS011;26591;43.264;26.940;2023-05-02T02:53:59;7.10;;;2.97;;
40871;SDS011;26591;43.264;26.940;2023-05-02T02:56:35;8.27;;;3.35;;
40871;SDS011;26591;43.264;26.940;2023-05-02T02:59:14;9.82;;;3.40;;
40871;SDS011;26591;43.264;26.940;2023-05-02T03:01:51;13.43;;;3.83;;
40871;SDS011;26591;43.264;26.940;2023-05-02T03:04:37;11.90;;;4.15;;
40871;SDS011;26591;43.264;26.940;2023-05-02T03:07:05;9.98;;;3.58;;
40871;SDS011;26591;43.264;26.940;2023-05-02T03:09:43;6.95;;;3.63;;
40871;SDS011;26591;43.264;26.940;2023-05-02T03:12:11;6.47;;;2.60;;
40871;SDS011;26591;43.264;26.940;2023-05-02T03:14:36;14.00;;;4.85;;
40871;SDS011;26591;43.264;26.940;2023-05-02T03:17:02;8.52;;;3.25;;
40871;SDS011;26591;43.264;26.940;2023-05-02T03:19:28;9.82;;;3.63;;
40871;SDS011;26591;43.264;26.940;2023-05-02T03:21:54;9.15;;;3.42;;
40871;SDS011;26591;43.264;26.940;2023-05-02T03:24:19;10.35;;;2.75;;
40871;SDS011;26591;43.264;26.940;2023-05-02T03:26:45;11.57;;;3.65;;
40871;SDS011;26591;43.264;26.940;2023-05-02T03:29:12;12.38;;;3.88;;
40871;SDS011;26591;43.264;26.940;2023-05-02T03:31:41;11.98;;;3.90;;
40871;SDS011;26591;43.264;26.940;2023-05-02T03:34:06;11.70;;;4.38;;
40871;SDS011;26591;43.264;26.940;2023-05-02T03:36:32;11.30;;;4.93;;
40871;SDS011;26591;43.264;26.940;2023-05-02T03:38:57;22.83;;;5.57;;
40871;SDS011;26591;43.264;26.940;2023-05-02T03:41:23;16.45;;;4.40;;
40871;SDS011;26591;43.264;26.940;2023-05-02T03:43:51;9.15;;;4.40;;
40871;SDS011;26591;43.264;26.940;2023-05-02T03:46:16;12.88;;;3.80;;
40871;SDS011;26591;43.264;26.940;2023-05-02T03:48:42;49.03;;;8.52;;
40871;SDS011;26591;43.264;26.940;2023-05-02T03:51:10;20.05;;;5.63;;
40871;SDS011;26591;43.264;26.940;2023-05-02T03:53:36;14.90;;;4.85;;
40871;SDS011;26591;43.264;26.940;2023-05-02T03:56:01;16.15;;;5.03;;
40871;SDS011;26591;43.264;26.940;2023-05-02T03:58:27;12.77;;;4.25;;
40871;SDS011;26591;43.264;26.940;2023-05-02T04:00:52;17.15;;;5.53;;
40871;SDS011;26591;43.264;26.940;2023-05-02T04:03:28;17.85;;;4.72;;
40871;SDS011;26591;43.264;26.940;2023-05-02T04:05:53;8.95;;;4.68;;
40871;SDS011;26591;43.264;26.940;2023-05-02T04:08:19;17.42;;;4.88;;
40871;SDS011;26591;43.264;26.940;2023-05-02T04:10:44;19.48;;;4.80;;
40871;SDS011;26591;43.264;26.940;2023-05-02T04:13:10;10.60;;;5.00;;
40871;SDS011;26591;43.264;26.940;2023-05-02T04:15:38;13.30;;;5.30;;
40871;SDS011;26591;43.264;26.940;2023-05-02T04:18:03;19.88;;;5.28;;
40871;SDS011;26591;43.264;26.940;2023-05-02T04:20:29;44.40;;;6.88;;
40871;SDS011;26591;43.264;26.940;2023-05-02T04:22:54;52.25;;;8.55;;
40871;SDS011;26591;43.264;26.940;2023-05-02T04:25:20;42.47;;;9.35;;
40871;SDS011;26591;43.264;26.940;2023-05-02T04:27:48;47.85;;;10.85;;
40871;SDS011;26591;43.264;26.940;2023-05-02T04:30:13;41.40;;;8.30;;
40871;SDS011;26591;43.264;26.940;2023-05-02T04:32:39;21.90;;;5.50;;
40871;SDS011;26591;43.264;26.940;2023-05-02T04:35:04;29.00;;;5.07;;
40871;SDS011;26591;43.264;26.940;2023-05-02T04:37:30;13.85;;;4.50;;
40871;SDS011;26591;43.264;26.940;2023-05-02T04:40:05;19.25;;;4.97;;
40871;SDS011;26591;43.264;26.940;2023-05-02T04:42:31;12.82;;;4.95;;
40871;SDS011;26591;43.264;26.940;2023-05-02T04:44:57;10.40;;;4.47;;
40871;SDS011;26591;43.264;26.940;2023-05-02T04:47:22;12.90;;;5.25;;
40871;SDS011;26591;43.264;26.940;2023-05-02T04:49:48;10.60;;;4.70;;
40871;SDS011;26591;43.264;26.940;2023-05-02T04:52:13;15.95;;;5.60;;
40871;SDS011;26591;43.264;26.940;2023-05-02T04:54:39;16.15;;;4.93;;
40871;SDS011;26591;43.264;26.940;2023-05-02T04:57:04;14.27;;;5.50;;
40871;SDS011;26591;43.264;26.940;2023-05-02T04:59:32;15.05;;;5.85;;
40871;SDS011;26591;43.264;26.940;2023-05-02T05:01:58;19.10;;;4.90;;
40871;SDS011;26591;43.264;26.940;2023-05-02T05:04:23;9.35;;;4.50;;
40871;SDS011;26591;43.264;26.940;2023-05-02T05:06:49;14.85;;;4.15;;
40871;SDS011;26591;43.264;26.940;2023-05-02T05:09:15;16.38;;;5.28;;
40871;SDS011;26591;43.264;26.940;2023-05-02T05:11:43;19.83;;;4.63;;
40871;SDS011;26591;43.264;26.940;2023-05-02T05:14:10;17.70;;;4.82;;
40871;SDS011;26591;43.264;26.940;2023-05-02T05:16:36;26.85;;;5.65;;
40871;SDS011;26591;43.264;26.940;2023-05-02T05:19:01;12.30;;;4.18;;
40871;SDS011;26591;43.264;26.940;2023-05-02T05:21:28;27.95;;;5.00;;
40871;SDS011;26591;43.264;26.940;2023-05-02T05:23:53;35.70;;;7.32;;
40871;SDS011;26591;43.264;26.940;2023-05-02T05:26:19;25.73;;;6.43;;
40871;SDS011;26591;43.264;26.940;2023-05-02T05:28:45;15.05;;;5.10;;
40871;SDS011;26591;43.264;26.940;2023-05-02T05:31:11;21.75;;;5.53;;
40871;SDS011;26591;43.264;26.940;2023-05-02T05:33:41;21.80;;;5.28;;
40871;SDS011;26591;43.264;26.940;2023-05-02T05:36:07;18.25;;;5.25;;
40871;SDS011;26591;43.264;26.940;2023-05-02T05:38:34;21.63;;;5.60;;
40871;SDS011;26591;43.264;26.940;2023-05-02T05:41:00;18.00;;;6.07;;
40871;SDS011;26591;43.264;26.940;2023-05-02T05:43:32;31.25;;;5.93;;
40871;SDS011;26591;43.264;26.940;2023-05-02T05:45:58;24.83;;;7.28;;
40871;SDS011;26591;43.264;26.940;2023-05-02T05:48:23;24.50;;;6.43;;
40871;SDS011;26591;43.264;26.940;2023-05-02T05:50:49;17.45;;;6.38;;
40871;SDS011;26591;43.264;26.940;2023-05-02T05:53:16;30.55;;;6.38;;
40871;SDS011;26591;43.264;26.940;2023-05-02T05:55:42;21.38;;;6.32;;
40871;SDS011;26591;43.264;26.940;2023-05-02T05:58:08;29.35;;;6.03;;
40871;SDS011;26591;43.264;26.940;2023-05-02T06:00:34;20.33;;;5.50;;
40871;SDS011;26591;43.264;26.940;2023-05-02T06:03:00;34.58;;;6.22;;
40871;SDS011;26591;43.264;26.940;2023-05-02T06:05:26;19.88;;;6.10;;
40871;SDS011;26591;43.264;26.940;2023-05-02T06:07:52;22.17;;;5.28;;
40871;SDS011;26591;43.264;26.940;2023-05-02T06:10:17;24.15;;;5.38;;
40871;SDS011;26591;43.264;26.940;2023-05-02T06:12:43;20.42;;;5.15;;
40871;SDS011;26591;43.264;26.940;2023-05-02T06:15:08;10.57;;;4.07;;
40871;SDS011;26591;43.264;26.940;2023-05-02T06:17:34;18.77;;;4.70;;
40871;SDS011;26591;43.264;26.940;2023-05-02T06:19:59;13.75;;;3.92;;
40871;SDS011;26591;43.264;26.940;2023-05-02T06:22:25;25.02;;;5.18;;
40871;SDS011;26591;43.264;26.940;2023-05-02T06:24:50;15.68;;;4.35;;
40871;SDS011;26591;43.264;26.940;2023-05-02T06:27:16;20.08;;;4.57;;
40871;SDS011;26591;43.264;26.940;2023-05-02T06:29:41;21.08;;;4.13;;
40871;SDS011;26591;43.264;26.940;2023-05-02T06:32:07;9.02;;;3.33;;
40871;SDS011;26591;43.264;26.940;2023-05-02T06:34:34;13.68;;;3.65;;
40871;SDS011;26591;43.264;26.940;2023-05-02T06:36:59;7.22;;;1.95;;
40871;SDS011;26591;43.264;26.940;2023-05-02T06:39:25;6.45;;;1.85;;
40871;SDS011;26591;43.264;26.940;2023-05-02T06:41:50;5.07;;;1.90;;
40871;SDS011;26591;43.264;26.940;2023-05-02T06:44:22;4.93;;;2.05;;
40871;SDS011;26591;43.264;26.940;2023-05-02T06:46:47;8.05;;;2.60;;
40871;SDS011;26591;43.264;26.940;2023-05-02T06:49:15;4.00;;;1.83;;
40871;SDS011;26591;43.264;26.940;2023-05-02T06:51:40;6.55;;;1.73;;
40871;SDS011;26591;43.264;26.940;2023-05-02T06:54:06;10.43;;;2.22;;
40871;SDS011;26591;43.264;26.940;2023-05-02T06:56:32;7.28;;;1.77;;
40871;SDS011;26591;43.264;26.940;2023-05-02T06:58:58;4.68;;;1.45;;
40871;SDS011;26591;43.264;26.940;2023-05-02T07:01:24;5.72;;;1.77;;
40871;SDS011;26591;43.264;26.940;2023-05-02T07:03:49;10.07;;;2.13;;
40871;SDS011;26591;43.264;26.940;2023-05-02T07:06:15;4.55;;;1.58;;
40871;SDS011;26591;43.264;26.940;2023-05-02T07:08:40;8.60;;;1.40;;
40871;SDS011;26591;43.264;26.940;2023-05-02T07:11:06;9.57;;;1.98;;
40871;SDS011;26591;43.264;26.940;2023-05-02T07:13:31;6.32;;;1.73;;
40871;SDS011;26591;43.264;26.940;2023-05-02T07:15:56;4.68;;;1.58;;
40871;SDS011;26591;43.264;26.940;2023-05-02T07:18:22;5.20;;;1.50;;
40871;SDS011;26591;43.264;26.940;2023-05-02T07:20:48;10.70;;;2.15;;
40871;SDS011;26591;43.264;26.940;2023-05-02T07:23:14;7.55;;;1.90;;
40871;SDS011;26591;43.264;26.940;2023-05-02T07:25:39;2.60;;;1.55;;
40871;SDS011;26591;43.264;26.940;2023-05-02T07:28:05;6.15;;;1.90;;
40871;SDS011;26591;43.264;26.940;2023-05-02T07:30:31;7.93;;;1.85;;
40871;SDS011;26591;43.264;26.940;2023-05-02T07:32:57;6.22;;;1.50;;
40871;SDS011;26591;43.264;26.940;2023-05-02T07:35:22;3.30;;;1.30;;
40871;SDS011;26591;43.264;26.940;2023-05-02T07:37:48;7.93;;;1.63;;
40871;SDS011;26591;43.264;26.940;2023-05-02T07:40:13;10.23;;;1.77;;
40871;SDS011;26591;43.264;26.940;2023-05-02T07:42:39;3.35;;;1.55;;
40871;SDS011;26591;43.264;26.940;2023-05-02T07:45:08;5.03;;;1.70;;
40871;SDS011;26591;43.264;26.940;2023-05-02T07:47:44;4.22;;;1.60;;
40871;SDS011;26591;43.264;26.940;2023-05-02T07:50:33;8.38;;;1.42;;
40871;SDS011;26591;43.264;26.940;2023-05-02T07:52:59;8.00;;;2.22;;
40871;SDS011;26591;43.264;26.940;2023-05-02T07:55:24;8.63;;;1.92;;
40871;SDS011;26591;43.264;26.940;2023-05-02T07:57:53;8.48;;;1.90;;
40871;SDS011;26591;43.264;26.940;2023-05-02T08:00:18;4.53;;;1.60;;
40871;SDS011;26591;43.264;26.940;2023-05-02T08:02:44;2.50;;;1.52;;
40871;SDS011;26591;43.264;26.940;2023-05-02T08:05:10;5.88;;;1.67;;
40871;SDS011;26591;43.264;26.940;2023-05-02T08:07:35;4.68;;;1.38;;
40871;SDS011;26591;43.264;26.940;2023-05-02T08:10:01;9.93;;;1.42;;
40871;SDS011;26591;43.264;26.940;2023-05-02T08:12:26;5.90;;;1.80;;
40871;SDS011;26591;43.264;26.940;2023-05-02T08:14:52;7.07;;;1.40;;
40871;SDS011;26591;43.264;26.940;2023-05-02T08:17:18;6.35;;;1.67;;
40871;SDS011;26591;43.264;26.940;2023-05-02T08:19:44;6.15;;;1.40;;
40871;SDS011;26591;43.264;26.940;2023-05-02T08:22:09;3.08;;;1.40;;
40871;SDS011;26591;43.264;26.940;2023-05-02T08:24:35;2.30;;;1.23;;
40871;SDS011;26591;43.264;26.940;2023-05-02T08:27:00;3.28;;;1.30;;
40871;SDS011;26591;43.264;26.940;2023-05-02T08:29:28;3.70;;;1.40;;
40871;SDS011;26591;43.264;26.940;2023-05-02T08:31:54;3.08;;;1.65;;
40871;SDS011;26591;43.264;26.940;2023-05-02T08:34:20;6.05;;;1.52;;
40871;SDS011;26591;43.264;26.940;2023-05-02T08:36:46;6.50;;;1.20;;
40871;SDS011;26591;43.264;26.940;2023-05-02T08:39:11;4.97;;;1.73;;
40871;SDS011;26591;43.264;26.940;2023-05-02T08:41:36;10.32;;;1.67;;
40871;SDS011;26591;43.264;26.940;2023-05-02T08:44:02;15.35;;;1.90;;
40871;SDS011;26591;43.264;26.940;2023-05-02T08:46:30;6.00;;;1.73;;
40871;SDS011;26591;43.264;26.940;2023-05-02T08:48:59;3.28;;;1.50;;
40871;SDS011;26591;43.264;26.940;2023-05-02T08:51:26;5.03;;;1.58;;
40871;SDS011;26591;43.264;26.940;2023-05-02T08:53:53;6.88;;;1.90;;
40871;SDS011;26591;43.264;26.940;2023-05-02T08:56:19;8.13;;;1.50;;
40871;SDS011;26591;43.264;26.940;2023-05-02T08:58:45;11.52;;;1.75;;
40871;SDS011;26591;43.264;26.940;2023-05-02T09:01:15;7.13;;;1.75;;
40871;SDS011;26591;43.264;26.940;2023-05-02T09:03:42;3.08;;;1.30;;
40871;SDS011;26591;43.264;26.940;2023-05-02T09:08:37;3.67;;;1.45;;
40871;SDS011;26591;43.264;26.940;2023-05-02T09:11:10;5.13;;;1.63;;
40871;SDS011;26591;43.264;26.940;2023-05-02T09:13:37;3.03;;;1.40;;
40871;SDS011;26591;43.264;26.940;2023-05-02T09:16:09;5.60;;;1.40;;
40871;SDS011;26591;43.264;26.940;2023-05-02T09:21:06;2.35;;;1.10;;
40871;SDS011;26591;43.264;26.940;2023-05-02T09:23:37;3.05;;;1.40;;
40871;SDS011;26591;43.264;26.940;2023-05-02T09:28:51;5.65;;;1.50;;
40871;SDS011;26591;43.264;26.940;2023-05-02T09:31:18;6.35;;;1.60;;
40871;SDS011;26591;43.264;26.940;2023-05-02T09:33:45;3.53;;;1.20;;
40871;SDS011;26591;43.264;26.940;2023-05-02T09:36:15;5.22;;;1.42;;
40871;SDS011;26591;43.264;26.940;2023-05-02T09:38:42;9.65;;;1.40;;
40871;SDS011;26591;43.264;26.940;2023-05-02T09:41:09;4.28;;;1.40;;
40871;SDS011;26591;43.264;26.940;2023-05-02T09:43:35;3.95;;;1.20;;
40871;SDS011;26591;43.264;26.940;2023-05-02T09:46:05;3.67;;;1.40;;
40871;SDS011;26591;43.264;26.940;2023-05-02T09:49:17;3.20;;;1.30;;
40871;SDS011;26591;43.264;26.940;2023-05-02T09:51:21;10.23;;;1.38;;
40871;SDS011;26591;43.264;26.940;2023-05-02T09:53:48;3.53;;;1.40;;
40871;SDS011;26591;43.264;26.940;2023-05-02T09:56:13;3.97;;;1.15;;
40871;SDS011;26591;43.264;26.940;2023-05-02T09:58:39;7.70;;;1.80;;
40871;SDS011;26591;43.264;26.940;2023-05-02T10:01:05;5.13;;;1.40;;
40871;SDS011;26591;43.264;26.940;2023-05-02T10:03:31;8.57;;;1.50;;
40871;SDS011;26591;43.264;26.940;2023-05-02T10:06:01;6.20;;;1.48;;
40871;SDS011;26591;43.264;26.940;2023-05-02T10:08:29;7.60;;;2.90;;
40871;SDS011;26591;43.264;26.940;2023-05-02T10:10:58;4.57;;;1.08;;
40871;SDS011;26591;43.264;26.940;2023-05-02T10:13:25;3.55;;;1.60;;
40871;SDS011;26591;43.264;26.940;2023-05-02T10:21:15;8.57;;;2.55;;
40871;SDS011;26591;43.264;26.940;2023-05-02T10:23:44;7.37;;;1.13;;
40871;SDS011;26591;43.264;26.940;2023-05-02T10:26:15;2.40;;;1.60;;
40871;SDS011;26591;43.264;26.940;2023-05-02T10:28:41;2.60;;;1.40;;
40871;SDS011;26591;43.264;26.940;2023-05-02T10:31:10;3.20;;;1.20;;
40871;SDS011;26591;43.264;26.940;2023-05-02T10:33:37;4.65;;;1.20;;
40871;SDS011;26591;43.264;26.940;2023-05-02T10:36:04;5.90;;;1.33;;
40871;SDS011;26591;43.264;26.940;2023-05-02T10:38:32;10.75;;;1.58;;
40871;SDS011;26591;43.264;26.940;2023-05-02T10:40:58;9.43;;;1.77;;
40871;SDS011;26591;43.264;26.940;2023-05-02T10:43:29;4.72;;;1.38;;
40871;SDS011;26591;43.264;26.940;2023-05-02T10:45:56;7.07;;;1.27;;
40871;SDS011;26591;43.264;26.940;2023-05-02T10:48:23;3.50;;;1.10;;
40871;SDS011;26591;43.264;26.940;2023-05-02T10:50:50;6.65;;;1.52;;
40871;SDS011;26591;43.264;26.940;2023-05-02T10:53:35;3.15;;;1.50;;
40871;SDS011;26591;43.264;26.940;2023-05-02T10:58:40;2.63;;;1.08;;
40871;SDS011;26591;43.264;26.940;2023-05-02T11:04:02;2.35;;;1.30;;
40871;SDS011;26591;43.264;26.940;2023-05-02T11:06:30;6.50;;;1.48;;
40871;SDS011;26591;43.264;26.940;2023-05-02T11:14:09;5.55;;;1.15;;
40871;SDS011;26591;43.264;26.940;2023-05-02T11:17:18;8.70;;;1.45;;
40871;SDS011;26591;43.264;26.940;2023-05-02T11:24:46;2.15;;;1.17;;
40871;SDS011;26591;43.264;26.940;2023-05-02T11:32:18;1.98;;;1.13;;
40871;SDS011;26591;43.264;26.940;2023-05-02T11:34:44;6.28;;;1.63;;
40871;SDS011;26591;43.264;26.940;2023-05-02T11:37:10;2.95;;;1.30;;
40871;SDS011;26591;43.264;26.940;2023-05-02T11:39:37;3.38;;;1.30;;
40871;SDS011;26591;43.264;26.940;2023-05-02T11:42:03;3.05;;;1.40;;
40871;SDS011;26591;43.264;26.940;2023-05-02T11:44:28;6.50;;;2.20;;
40871;SDS011;26591;43.264;26.940;2023-05-02T11:46:53;5.20;;;1.13;;
40871;SDS011;26591;43.264;26.940;2023-05-02T11:49:19;3.40;;;1.20;;
40871;SDS011;26591;43.264;26.940;2023-05-02T11:51:45;4.90;;;1.50;;
40871;SDS011;26591;43.264;26.940;2023-05-02T11:54:17;5.70;;;1.20;;
40871;SDS011;26591;43.264;26.940;2023-05-02T11:56:44;2.50;;;1.30;;
40871;SDS011;26591;43.264;26.940;2023-05-02T11:59:09;2.70;;;1.13;;
40871;SDS011;26591;43.264;26.940;2023-05-02T12:01:35;2.75;;;1.30;;
40871;SDS011;26591;43.264;26.940;2023-05-02T12:04:02;5.95;;;1.30;;
40871;SDS011;26591;43.264;26.940;2023-05-02T12:06:27;3.75;;;1.35;;
40871;SDS011;26591;43.264;26.940;2023-05-02T12:08:53;4.43;;;1.40;;
40871;SDS011;26591;43.264;26.940;2023-05-02T12:11:30;7.70;;;1.40;;
40871;SDS011;26591;43.264;26.940;2023-05-02T12:13:56;5.80;;;1.42;;
40871;SDS011;26591;43.264;26.940;2023-05-02T12:16:21;2.72;;;1.25;;
40871;SDS011;26591;43.264;26.940;2023-05-02T12:18:47;3.58;;;1.48;;
40871;SDS011;26591;43.264;26.940;2023-05-02T12:21:13;3.42;;;1.17;;
40871;SDS011;26591;43.264;26.940;2023-05-02T12:23:39;3.85;;;1.10;;
40871;SDS011;26591;43.264;26.940;2023-05-02T12:26:17;2.25;;;1.30;;
40871;SDS011;26591;43.264;26.940;2023-05-02T12:28:53;1.17;;;0.85;;
40871;SDS011;26591;43.264;26.940;2023-05-02T12:31:19;3.15;;;1.50;;
40871;SDS011;26591;43.264;26.940;2023-05-02T12:33:45;5.65;;;1.27;;
40871;SDS011;26591;43.264;26.940;2023-05-02T12:36:19;9.63;;;1.40;;
40871;SDS011;26591;43.264;26.940;2023-05-02T12:38:49;9.00;;;1.35;;
40871;SDS011;26591;43.264;26.940;2023-05-02T12:41:17;3.55;;;1.65;;
40871;SDS011;26591;43.264;26.940;2023-05-02T12:43:47;4.70;;;1.25;;
40871;SDS011;26591;43.264;26.940;2023-05-02T12:46:13;1.45;;;1.08;;
40871;SDS011;26591;43.264;26.940;2023-05-02T12:48:39;7.00;;;1.30;;
40871;SDS011;26591;43.264;26.940;2023-05-02T12:51:04;5.32;;;1.30;;
40871;SDS011;26591;43.264;26.940;2023-05-02T12:56:03;6.90;;;1.23;;
40871;SDS011;26591;43.264;26.940;2023-05-02T12:58:29;12.52;;;1.73;;
40871;SDS011;26591;43.264;26.940;2023-05-02T13:00:55;4.55;;;1.33;;
40871;SDS011;26591;43.264;26.940;2023-05-02T13:03:20;2.70;;;1.10;;
40871;SDS011;26591;43.264;26.940;2023-05-02T13:05:46;8.95;;;1.50;;
40871;SDS011;26591;43.264;26.940;2023-05-02T13:08:11;3.63;;;1.30;;
40871;SDS011;26591;43.264;26.940;2023-05-02T13:10:37;4.50;;;1.30;;
40871;SDS011;26591;43.264;26.940;2023-05-02T13:13:02;3.85;;;1.20;;
40871;SDS011;26591;43.264;26.940;2023-05-02T13:15:28;4.75;;;1.63;;
40871;SDS011;26591;43.264;26.940;2023-05-02T13:17:53;5.57;;;1.25;;
40871;SDS011;26591;43.264;26.940;2023-05-02T13:20:19;5.22;;;2.22;;
40871;SDS011;26591;43.264;26.940;2023-05-02T13:22:45;4.68;;;1.45;;
40871;SDS011;26591;43.264;26.940;2023-05-02T13:25:10;3.58;;;1.55;;
40871;SDS011;26591;43.264;26.940;2023-05-02T13:27:36;3.58;;;1.30;;
40871;SDS011;26591;43.264;26.940;2023-05-02T13:30:02;5.80;;;1.48;;
40871;SDS011;26591;43.264;26.940;2023-05-02T13:32:27;5.03;;;1.38;;
40871;SDS011;26591;43.264;26.940;2023-05-02T13:34:53;7.75;;;1.30;;
40871;SDS011;26591;43.264;26.940;2023-05-02T13:37:19;2.67;;;1.52;;
40871;SDS011;26591;43.264;26.940;2023-05-02T13:39:45;3.53;;;1.40;;
40871;SDS011;26591;43.264;26.940;2023-05-02T13:42:10;6.60;;;1.67;;
40871;SDS011;26591;43.264;26.940;2023-05-02T13:44:39;2.35;;;1.25;;
40871;SDS011;26591;43.264;26.940;2023-05-02T13:47:05;3.05;;;1.50;;
40871;SDS011;26591;43.264;26.940;2023-05-02T13:49:30;5.78;;;1.00;;
40871;SDS011;26591;43.264;26.940;2023-05-02T13:51:58;2.30;;;1.25;;
40871;SDS011;26591;43.264;26.940;2023-05-02T13:54:24;5.53;;;1.33;;
40871;SDS011;26591;43.264;26.940;2023-05-02T13:56:50;3.63;;;1.40;;
40871;SDS011;26591;43.264;26.940;2023-05-02T13:59:15;2.13;;;1.08;;
40871;SDS011;26591;43.264;26.940;2023-05-02T14:01:41;4.75;;;1.23;;
40871;SDS011;26591;43.264;26.940;2023-05-02T14:04:06;5.85;;;1.40;;
40871;SDS011;26591;43.264;26.940;2023-05-02T14:06:35;5.35;;;1.70;;
40871;SDS011;26591;43.264;26.940;2023-05-02T14:09:02;3.97;;;1.40;;
40871;SDS011;26591;43.264;26.940;2023-05-02T14:11:28;3.35;;;1.38;;
40871;SDS011;26591;43.264;26.940;2023-05-02T14:13:54;3.33;;;1.33;;
40871;SDS011;26591;43.264;26.940;2023-05-02T14:16:22;5.10;;;1.23;;
40871;SDS011;26591;43.264;26.940;2023-05-02T14:18:47;5.18;;;1.40;;
40871;SDS011;26591;43.264;26.940;2023-05-02T14:21:16;2.80;;;1.45;;
40871;SDS011;26591;43.264;26.940;2023-05-02T14:23:41;4.65;;;1.20;;
40871;SDS011;26591;43.264;26.940;2023-05-02T14:26:07;6.55;;;1.60;;
40871;SDS011;26591;43.264;26.940;2023-05-02T14:28:33;8.05;;;1.73;;
40871;SDS011;26591;43.264;26.940;2023-05-02T14:30:58;3.88;;;1.50;;
40871;SDS011;26591;43.264;26.940;2023-05-02T14:33:23;4.93;;;1.38;;
40871;SDS011;26591;43.264;26.940;2023-05-02T14:35:49;3.15;;;1.65;;
40871;SDS011;26591;43.264;26.940;2023-05-02T14:38:15;7.75;;;1.67;;
40871;SDS011;26591;43.264;26.940;2023-05-02T14:40:40;11.25;;;1.60;;
40871;SDS011;26591;43.264;26.940;2023-05-02T14:43:06;4.65;;;1.40;;
40871;SDS011;26591;43.264;26.940;2023-05-02T14:45:32;4.65;;;1.20;;
40871;SDS011;26591;43.264;26.940;2023-05-02T14:47:57;9.10;;;1.38;;
40871;SDS011;26591;43.264;26.940;2023-05-02T14:50:23;4.10;;;1.45;;
40871;SDS011;26591;43.264;26.940;2023-05-02T14:52:49;6.70;;;1.70;;
40871;SDS011;26591;43.264;26.940;2023-05-02T14:55:15;5.50;;;1.55;;
40871;SDS011;26591;43.264;26.940;2023-05-02T14:57:40;2.33;;;1.38;;
40871;SDS011;26591;43.264;26.940;2023-05-02T15:00:06;2.90;;;1.73;;
40871;SDS011;26591;43.264;26.940;2023-05-02T15:02:32;4.10;;;1.20;;
40871;SDS011;26591;43.264;26.940;2023-05-02T15:04:58;8.02;;;1.52;;
40871;SDS011;26591;43.264;26.940;2023-05-02T15:07:24;7.38;;;1.67;;
40871;SDS011;26591;43.264;26.940;2023-05-02T15:09:50;2.75;;;1.60;;
40871;SDS011;26591;43.264;26.940;2023-05-02T15:12:16;9.95;;;1.67;;
40871;SDS011;26591;43.264;26.940;2023-05-02T15:14:41;3.20;;;1.55;;
40871;SDS011;26591;43.264;26.940;2023-05-02T15:17:07;4.13;;;1.52;;
40871;SDS011;26591;43.264;26.940;2023-05-02T15:19:32;5.93;;;1.60;;
40871;SDS011;26591;43.264;26.940;2023-05-02T15:21:58;6.53;;;1.77;;
40871;SDS011;26591;43.264;26.940;2023-05-02T15:24:23;11.38;;;1.88;;
40871;SDS011;26591;43.264;26.940;2023-05-02T15:26:49;2.38;;;1.15;;
40871;SDS011;26591;43.264;26.940;2023-05-02T15:29:15;1.83;;;1.10;;
40871;SDS011;26591;43.264;26.940;2023-05-02T15:31:41;5.35;;;1.17;;
40871;SDS011;26591;43.264;26.940;2023-05-02T15:34:07;5.57;;;1.25;;